sensor_id;sensor_type;location;lat;lon;timestamp;P1;durP1;ratioP1;P2;durP2;ratioP2
66597;SDS011;57424;53.128;6.406;2022-09-13T00:00:38;5.05;;;3.80;;
66597;SDS011;57424;53.128;6.406;2022-09-13T00:03:05;6.28;;;4.00;;
66597;SDS011;57424;53.128;6.406;2022-09-13T00:05:32;5.53;;;4.13;;
66597;SDS011;57424;53.128;6.406;2022-09-13T00:07:57;5.13;;;4.32;;
66597;SDS011;57424;53.128;6.406;2022-09-13T00:10:24;6.93;;;4.10;;
66597;SDS011;57424;53.128;6.406;2022-09-13T00:12:50;5.72;;;3.88;;
66597;SDS011;57424;53.128;6.406;2022-09-13T00:15:16;5.80;;;4.13;;
66597;SDS011;57424;53.128;6.406;2022-09-13T00:17:42;5.20;;;3.95;;
66597;SDS011;57424;53.128;6.406;2022-09-13T00:20:07;5.43;;;4.03;;
66597;SDS011;57424;53.128;6.406;2022-09-13T00:22:33;5.28;;;3.92;;
66597;SDS011;57424;53.128;6.406;2022-09-13T00:24:59;11.82;;;3.88;;
66597;SDS011;57424;53.128;6.406;2022-09-13T00:27:25;5.32;;;3.88;;
66597;SDS011;57424;53.128;6.406;2022-09-13T00:29:50;4.45;;;3.58;;
66597;SDS011;57424;53.128;6.406;2022-09-13T00:32:16;6.13;;;3.47;;
66597;SDS011;57424;53.128;6.406;2022-09-13T00:34:41;5.88;;;4.00;;
66597;SDS011;57424;53.128;6.406;2022-09-13T00:37:07;7.10;;;4.00;;
66597;SDS011;57424;53.128;6.406;2022-09-13T00:39:33;4.25;;;3.35;;
66597;SDS011;57424;53.128;6.406;2022-09-13T00:41:59;5.18;;;4.03;;
66597;SDS011;57424;53.128;6.406;2022-09-13T00:47:14;5.10;;;3.67;;
66597;SDS011;57424;53.128;6.406;2022-09-13T00:49:47;4.63;;;3.30;;
66597;SDS011;57424;53.128;6.406;2022-09-13T00:52:17;5.03;;;3.83;;
66597;SDS011;57424;53.128;6.406;2022-09-13T00:54:50;4.25;;;3.55;;
66597;SDS011;57424;53.128;6.406;2022-09-13T00:57:21;3.95;;;3.33;;
66597;SDS011;57424;53.128;6.406;2022-09-13T01:02:35;5.68;;;3.53;;
66597;SDS011;57424;53.128;6.406;2022-09-13T01:05:02;5.10;;;3.55;;
66597;SDS011;57424;53.128;6.406;2022-09-13T01:07:28;5.40;;;3.70;;
66597;SDS011;57424;53.128;6.406;2022-09-13T01:09:54;5.05;;;3.45;;
66597;SDS011;57424;53.128;6.406;2022-09-13T01:12:31;3.80;;;3.40;;
66597;SDS011;57424;53.128;6.406;2022-09-13T01:15:01;4.43;;;3.55;;
66597;SDS011;57424;53.128;6.406;2022-09-13T01:17:29;5.53;;;3.20;;
66597;SDS011;57424;53.128;6.406;2022-09-13T01:19:56;4.93;;;3.20;;
66597;SDS011;57424;53.128;6.406;2022-09-13T01:30:27;4.10;;;3.30;;
66597;SDS011;57424;53.128;6.406;2022-09-13T01:41:29;3.53;;;2.90;;
66597;SDS011;57424;53.128;6.406;2022-09-13T01:47:02;4.45;;;3.05;;
66597;SDS011;57424;53.128;6.406;2022-09-13T01:55:29;3.35;;;2.92;;
66597;SDS011;57424;53.128;6.406;2022-09-13T01:58:19;4.75;;;3.28;;
66597;SDS011;57424;53.128;6.406;2022-09-13T02:00:58;3.80;;;3.33;;
66597;SDS011;57424;53.128;6.406;2022-09-13T02:06:20;4.30;;;3.17;;
66597;SDS011;57424;53.128;6.406;2022-09-13T02:09:13;3.67;;;3.20;;
66597;SDS011;57424;53.128;6.406;2022-09-13T02:14:15;4.47;;;2.90;;
66597;SDS011;57424;53.128;6.406;2022-09-13T02:17:06;3.90;;;3.22;;
66597;SDS011;57424;53.128;6.406;2022-09-13T02:19:52;3.53;;;2.88;;
66597;SDS011;57424;53.128;6.406;2022-09-13T02:22:24;3.42;;;3.10;;
66597;SDS011;57424;53.128;6.406;2022-09-13T02:24:57;3.72;;;3.00;;
66597;SDS011;57424;53.128;6.406;2022-09-13T02:27:36;3.88;;;2.88;;
66597;SDS011;57424;53.128;6.406;2022-09-13T02:30:05;3.92;;;3.17;;
66597;SDS011;57424;53.128;6.406;2022-09-13T02:32:40;4.07;;;3.10;;
66597;SDS011;57424;53.128;6.406;2022-09-13T02:37:40;4.07;;;2.90;;
66597;SDS011;57424;53.128;6.406;2022-09-13T02:40:14;4.15;;;2.95;;
66597;SDS011;57424;53.128;6.406;2022-09-13T02:42:48;4.93;;;3.10;;
66597;SDS011;57424;53.128;6.406;2022-09-13T02:45:19;3.75;;;2.95;;
66597;SDS011;57424;53.128;6.406;2022-09-13T02:47:52;4.30;;;3.10;;
66597;SDS011;57424;53.128;6.406;2022-09-13T02:50:36;3.92;;;2.95;;
66597;SDS011;57424;53.128;6.406;2022-09-13T02:56:02;3.85;;;2.90;;
66597;SDS011;57424;53.128;6.406;2022-09-13T02:59:00;2.97;;;2.63;;
66597;SDS011;57424;53.128;6.406;2022-09-13T03:01:37;4.75;;;2.85;;
66597;SDS011;57424;53.128;6.406;2022-09-13T03:04:05;3.47;;;3.00;;
66597;SDS011;57424;53.128;6.406;2022-09-13T03:06:31;2.50;;;2.30;;
66597;SDS011;57424;53.128;6.406;2022-09-13T03:08:58;3.63;;;2.70;;
66597;SDS011;57424;53.128;6.406;2022-09-13T03:11:33;3.72;;;2.72;;
66597;SDS011;57424;53.128;6.406;2022-09-13T03:22:31;4.40;;;2.67;;
66597;SDS011;57424;53.128;6.406;2022-09-13T03:25:15;3.63;;;2.75;;
66597;SDS011;57424;53.128;6.406;2022-09-13T03:27:50;4.22;;;2.95;;
66597;SDS011;57424;53.128;6.406;2022-09-13T03:30:30;3.67;;;3.00;;
66597;SDS011;57424;53.128;6.406;2022-09-13T03:33:05;3.28;;;2.60;;
66597;SDS011;57424;53.128;6.406;2022-09-13T03:35:54;2.97;;;2.67;;
66597;SDS011;57424;53.128;6.406;2022-09-13T03:38:25;3.13;;;2.75;;
66597;SDS011;57424;53.128;6.406;2022-09-13T03:41:03;3.20;;;2.80;;
66597;SDS011;57424;53.128;6.406;2022-09-13T03:43:41;2.88;;;2.47;;
66597;SDS011;57424;53.128;6.406;2022-09-13T03:46:14;3.20;;;2.45;;
66597;SDS011;57424;53.128;6.406;2022-09-13T03:48:53;3.72;;;2.67;;
66597;SDS011;57424;53.128;6.406;2022-09-13T03:51:20;3.90;;;2.60;;
66597;SDS011;57424;53.128;6.406;2022-09-13T03:53:50;2.97;;;2.50;;
66597;SDS011;57424;53.128;6.406;2022-09-13T03:56:22;2.88;;;2.35;;
66597;SDS011;57424;53.128;6.406;2022-09-13T03:58:48;3.13;;;2.60;;
66597;SDS011;57424;53.128;6.406;2022-09-13T04:01:16;2.47;;;2.10;;
66597;SDS011;57424;53.128;6.406;2022-09-13T04:03:44;3.40;;;2.70;;
66597;SDS011;57424;53.128;6.406;2022-09-13T04:06:10;3.20;;;2.55;;
66597;SDS011;57424;53.128;6.406;2022-09-13T04:08:35;3.20;;;2.42;;
66597;SDS011;57424;53.128;6.406;2022-09-13T04:11:01;3.50;;;2.53;;
66597;SDS011;57424;53.128;6.406;2022-09-13T04:13:27;2.95;;;2.20;;
66597;SDS011;57424;53.128;6.406;2022-09-13T04:15:53;3.05;;;2.60;;
66597;SDS011;57424;53.128;6.406;2022-09-13T04:18:19;3.35;;;2.72;;
66597;SDS011;57424;53.128;6.406;2022-09-13T04:20:51;2.75;;;2.45;;
66597;SDS011;57424;53.128;6.406;2022-09-13T04:23:21;2.50;;;2.30;;
66597;SDS011;57424;53.128;6.406;2022-09-13T04:25:47;2.13;;;1.92;;
66597;SDS011;57424;53.128;6.406;2022-09-13T04:28:15;3.60;;;2.40;;
66597;SDS011;57424;53.128;6.406;2022-09-13T04:30:45;2.97;;;2.33;;
66597;SDS011;57424;53.128;6.406;2022-09-13T04:33:11;3.58;;;2.28;;
66597;SDS011;57424;53.128;6.406;2022-09-13T04:35:37;2.63;;;2.30;;
66597;SDS011;57424;53.128;6.406;2022-09-13T04:38:04;2.38;;;2.13;;
66597;SDS011;57424;53.128;6.406;2022-09-13T04:40:30;2.53;;;2.30;;
66597;SDS011;57424;53.128;6.406;2022-09-13T04:42:56;2.38;;;1.98;;
66597;SDS011;57424;53.128;6.406;2022-09-13T04:45:21;2.90;;;2.28;;
66597;SDS011;57424;53.128;6.406;2022-09-13T04:47:51;3.55;;;2.38;;
66597;SDS011;57424;53.128;6.406;2022-09-13T04:50:20;2.88;;;1.92;;
66597;SDS011;57424;53.128;6.406;2022-09-13T04:52:47;3.30;;;2.33;;
66597;SDS011;57424;53.128;6.406;2022-09-13T04:55:13;3.85;;;2.38;;
66597;SDS011;57424;53.128;6.406;2022-09-13T04:57:42;2.47;;;2.28;;
66597;SDS011;57424;53.128;6.406;2022-09-13T05:00:08;3.58;;;2.40;;
66597;SDS011;57424;53.128;6.406;2022-09-13T05:02:34;2.50;;;2.10;;
66597;SDS011;57424;53.128;6.406;2022-09-13T05:04:59;2.25;;;2.00;;
66597;SDS011;57424;53.128;6.406;2022-09-13T05:07:25;2.90;;;2.33;;
66597;SDS011;57424;53.128;6.406;2022-09-13T05:09:50;2.28;;;1.98;;
66597;SDS011;57424;53.128;6.406;2022-09-13T05:12:16;2.78;;;2.28;;
66597;SDS011;57424;53.128;6.406;2022-09-13T05:14:42;2.20;;;1.90;;
66597;SDS011;57424;53.128;6.406;2022-09-13T05:17:07;2.55;;;2.00;;
66597;SDS011;57424;53.128;6.406;2022-09-13T05:19:33;2.03;;;1.83;;
66597;SDS011;57424;53.128;6.406;2022-09-13T05:21:59;2.65;;;2.10;;
66597;SDS011;57424;53.128;6.406;2022-09-13T05:24:25;2.30;;;2.10;;
66597;SDS011;57424;53.128;6.406;2022-09-13T05:26:51;2.30;;;2.10;;
66597;SDS011;57424;53.128;6.406;2022-09-13T05:29:16;2.20;;;1.90;;
66597;SDS011;57424;53.128;6.406;2022-09-13T05:31:42;2.22;;;2.03;;
66597;SDS011;57424;53.128;6.406;2022-09-13T05:34:09;2.30;;;2.10;;
66597;SDS011;57424;53.128;6.406;2022-09-13T05:36:37;2.35;;;1.95;;
66597;SDS011;57424;53.128;6.406;2022-09-13T05:39:04;2.45;;;2.00;;
66597;SDS011;57424;53.128;6.406;2022-09-13T05:41:30;2.33;;;2.00;;
66597;SDS011;57424;53.128;6.406;2022-09-13T05:43:56;2.10;;;1.90;;
66597;SDS011;57424;53.128;6.406;2022-09-13T05:46:22;2.97;;;2.25;;
66597;SDS011;57424;53.128;6.406;2022-09-13T05:48:47;2.30;;;1.90;;
66597;SDS011;57424;53.128;6.406;2022-09-13T05:51:17;2.00;;;1.80;;
66597;SDS011;57424;53.128;6.406;2022-09-13T05:53:45;1.75;;;1.65;;
66597;SDS011;57424;53.128;6.406;2022-09-13T05:56:13;2.08;;;1.90;;
66597;SDS011;57424;53.128;6.406;2022-09-13T05:58:41;2.33;;;2.00;;
66597;SDS011;57424;53.128;6.406;2022-09-13T06:01:08;2.38;;;1.88;;
66597;SDS011;57424;53.128;6.406;2022-09-13T06:03:35;2.53;;;1.90;;
66597;SDS011;57424;53.128;6.406;2022-09-13T06:06:01;2.00;;;1.85;;
66597;SDS011;57424;53.128;6.406;2022-09-13T06:08:29;3.97;;;2.10;;
66597;SDS011;57424;53.128;6.406;2022-09-13T06:10:56;2.45;;;1.80;;
66597;SDS011;57424;53.128;6.406;2022-09-13T06:13:27;2.30;;;2.00;;
66597;SDS011;57424;53.128;6.406;2022-09-13T06:15:53;2.05;;;1.75;;
66597;SDS011;57424;53.128;6.406;2022-09-13T06:18:20;2.67;;;2.03;;
66597;SDS011;57424;53.128;6.406;2022-09-13T06:20:47;1.95;;;1.60;;
66597;SDS011;57424;53.128;6.406;2022-09-13T06:23:13;2.10;;;1.80;;
66597;SDS011;57424;53.128;6.406;2022-09-13T06:25:39;2.85;;;1.67;;
66597;SDS011;57424;53.128;6.406;2022-09-13T06:28:05;3.00;;;1.65;;
66597;SDS011;57424;53.128;6.406;2022-09-13T06:30:31;3.25;;;1.83;;
66597;SDS011;57424;53.128;6.406;2022-09-13T06:32:57;4.78;;;1.90;;
66597;SDS011;57424;53.128;6.406;2022-09-13T06:35:23;2.75;;;1.67;;
66597;SDS011;57424;53.128;6.406;2022-09-13T06:37:49;3.47;;;1.70;;
66597;SDS011;57424;53.128;6.406;2022-09-13T06:40:15;4.15;;;1.92;;
66597;SDS011;57424;53.128;6.406;2022-09-13T06:42:44;6.40;;;2.17;;
66597;SDS011;57424;53.128;6.406;2022-09-13T06:45:10;3.10;;;1.88;;
66597;SDS011;57424;53.128;6.406;2022-09-13T06:47:35;3.35;;;1.80;;
66597;SDS011;57424;53.128;6.406;2022-09-13T06:50:01;5.35;;;1.88;;
66597;SDS011;57424;53.128;6.406;2022-09-13T06:52:26;2.67;;;1.52;;
66597;SDS011;57424;53.128;6.406;2022-09-13T06:54:52;2.80;;;1.60;;
66597;SDS011;57424;53.128;6.406;2022-09-13T06:57:18;3.90;;;1.50;;
66597;SDS011;57424;53.128;6.406;2022-09-13T06:59:44;5.70;;;1.77;;
66597;SDS011;57424;53.128;6.406;2022-09-13T07:02:10;5.93;;;1.80;;
66597;SDS011;57424;53.128;6.406;2022-09-13T07:04:38;2.40;;;1.58;;
66597;SDS011;57424;53.128;6.406;2022-09-13T07:07:04;2.42;;;1.73;;
66597;SDS011;57424;53.128;6.406;2022-09-13T07:09:29;2.90;;;1.80;;
66597;SDS011;57424;53.128;6.406;2022-09-13T07:11:55;1.88;;;1.50;;
66597;SDS011;57424;53.128;6.406;2022-09-13T07:14:25;2.25;;;1.67;;
66597;SDS011;57424;53.128;6.406;2022-09-13T07:16:51;1.65;;;1.38;;
66597;SDS011;57424;53.128;6.406;2022-09-13T07:19:19;1.90;;;1.42;;
66597;SDS011;57424;53.128;6.406;2022-09-13T07:21:46;2.50;;;1.50;;
66597;SDS011;57424;53.128;6.406;2022-09-13T07:24:13;1.83;;;1.43;;
66597;SDS011;57424;53.128;6.406;2022-09-13T07:26:40;2.28;;;1.55;;
66597;SDS011;57424;53.128;6.406;2022-09-13T07:29:06;2.35;;;1.60;;
66597;SDS011;57424;53.128;6.406;2022-09-13T07:31:35;4.10;;;1.50;;
66597;SDS011;57424;53.128;6.406;2022-09-13T07:34:03;2.35;;;1.60;;
66597;SDS011;57424;53.128;6.406;2022-09-13T07:36:31;2.63;;;1.50;;
66597;SDS011;57424;53.128;6.406;2022-09-13T07:38:58;6.40;;;1.60;;
66597;SDS011;57424;53.128;6.406;2022-09-13T07:41:24;3.33;;;1.65;;
66597;SDS011;57424;53.128;6.406;2022-09-13T07:43:51;3.00;;;1.60;;
66597;SDS011;57424;53.128;6.406;2022-09-13T07:46:17;2.08;;;1.63;;
66597;SDS011;57424;53.128;6.406;2022-09-13T07:48:45;3.45;;;1.83;;
66597;SDS011;57424;53.128;6.406;2022-09-13T07:51:12;3.75;;;1.52;;
66597;SDS011;57424;53.128;6.406;2022-09-13T07:53:43;5.80;;;1.60;;
66597;SDS011;57424;53.128;6.406;2022-09-13T07:56:10;4.53;;;1.60;;
66597;SDS011;57424;53.128;6.406;2022-09-13T07:58:38;3.13;;;1.33;;
66597;SDS011;57424;53.128;6.406;2022-09-13T08:01:26;7.78;;;1.70;;
66597;SDS011;57424;53.128;6.406;2022-09-13T08:03:53;8.45;;;1.95;;
66597;SDS011;57424;53.128;6.406;2022-09-13T08:06:27;2.95;;;1.58;;
66597;SDS011;57424;53.128;6.406;2022-09-13T08:08:55;4.60;;;1.80;;
66597;SDS011;57424;53.128;6.406;2022-09-13T08:11:22;8.50;;;1.88;;
66597;SDS011;57424;53.128;6.406;2022-09-13T08:13:53;6.72;;;1.83;;
66597;SDS011;57424;53.128;6.406;2022-09-13T08:16:19;5.13;;;1.48;;
66597;SDS011;57424;53.128;6.406;2022-09-13T08:18:47;3.78;;;1.45;;
66597;SDS011;57424;53.128;6.406;2022-09-13T08:21:14;3.05;;;2.13;;
66597;SDS011;57424;53.128;6.406;2022-09-13T08:23:40;3.55;;;1.30;;
66597;SDS011;57424;53.128;6.406;2022-09-13T08:26:07;3.15;;;1.42;;
66597;SDS011;57424;53.128;6.406;2022-09-13T08:28:40;7.45;;;1.60;;
66597;SDS011;57424;53.128;6.406;2022-09-13T08:33:32;4.32;;;1.77;;
66597;SDS011;57424;53.128;6.406;2022-09-13T08:35:59;4.10;;;1.58;;
66597;SDS011;57424;53.128;6.406;2022-09-13T08:38:25;7.38;;;1.55;;
66597;SDS011;57424;53.128;6.406;2022-09-13T08:40:55;9.25;;;1.75;;
66597;SDS011;57424;53.128;6.406;2022-09-13T08:43:34;5.22;;;1.40;;
66597;SDS011;57424;53.128;6.406;2022-09-13T08:49:00;4.07;;;1.60;;
66597;SDS011;57424;53.128;6.406;2022-09-13T08:51:41;2.97;;;1.50;;
66597;SDS011;57424;53.128;6.406;2022-09-13T08:54:12;8.02;;;2.63;;
66597;SDS011;57424;53.128;6.406;2022-09-13T08:59:31;4.72;;;1.60;;
66597;SDS011;57424;53.128;6.406;2022-09-13T09:05:20;4.95;;;1.60;;
66597;SDS011;57424;53.128;6.406;2022-09-13T09:08:05;16.98;;;2.40;;
66597;SDS011;57424;53.128;6.406;2022-09-13T09:10:39;6.97;;;2.10;;
66597;SDS011;57424;53.128;6.406;2022-09-13T09:13:15;8.15;;;1.73;;
66597;SDS011;57424;53.128;6.406;2022-09-13T09:15:57;6.47;;;1.73;;
66597;SDS011;57424;53.128;6.406;2022-09-13T09:18:45;5.72;;;1.38;;
66597;SDS011;57424;53.128;6.406;2022-09-13T09:21:17;3.85;;;1.50;;
66597;SDS011;57424;53.128;6.406;2022-09-13T09:28:46;3.35;;;1.35;;
66597;SDS011;57424;53.128;6.406;2022-09-13T09:32:02;2.90;;;1.42;;
66597;SDS011;57424;53.128;6.406;2022-09-13T09:36:55;2.75;;;1.50;;
66597;SDS011;57424;53.128;6.406;2022-09-13T09:39:36;5.10;;;1.70;;
66597;SDS011;57424;53.128;6.406;2022-09-13T09:42:04;7.80;;;1.63;;
66597;SDS011;57424;53.128;6.406;2022-09-13T09:44:41;8.68;;;1.80;;
66597;SDS011;57424;53.128;6.406;2022-09-13T09:49:50;4.50;;;1.50;;
66597;SDS011;57424;53.128;6.406;2022-09-13T09:52:51;5.75;;;1.48;;
66597;SDS011;57424;53.128;6.406;2022-09-13T09:55:31;8.10;;;1.73;;
66597;SDS011;57424;53.128;6.406;2022-09-13T09:57:58;10.98;;;2.13;;
66597;SDS011;57424;53.128;6.406;2022-09-13T10:00:31;9.73;;;1.60;;
66597;SDS011;57424;53.128;6.406;2022-09-13T10:03:00;4.97;;;1.70;;
66597;SDS011;57424;53.128;6.406;2022-09-13T10:05:29;4.90;;;1.60;;
66597;SDS011;57424;53.128;6.406;2022-09-13T10:08:06;6.22;;;1.30;;
66597;SDS011;57424;53.128;6.406;2022-09-13T10:10:50;4.75;;;1.50;;
66597;SDS011;57424;53.128;6.406;2022-09-13T10:13:19;2.55;;;1.27;;
66597;SDS011;57424;53.128;6.406;2022-09-13T10:15:56;3.78;;;1.40;;
66597;SDS011;57424;53.128;6.406;2022-09-13T10:18:33;8.55;;;1.52;;
66597;SDS011;57424;53.128;6.406;2022-09-13T10:21:09;8.25;;;1.23;;
66597;SDS011;57424;53.128;6.406;2022-09-13T10:23:48;8.43;;;1.77;;
66597;SDS011;57424;53.128;6.406;2022-09-13T10:28:46;6.05;;;1.70;;
66597;SDS011;57424;53.128;6.406;2022-09-13T10:31:26;5.90;;;1.60;;
66597;SDS011;57424;53.128;6.406;2022-09-13T10:34:22;4.93;;;1.50;;
66597;SDS011;57424;53.128;6.406;2022-09-13T10:36:53;4.78;;;1.40;;
66597;SDS011;57424;53.128;6.406;2022-09-13T10:39:24;5.68;;;1.33;;
66597;SDS011;57424;53.128;6.406;2022-09-13T10:41:53;4.60;;;1.60;;
66597;SDS011;57424;53.128;6.406;2022-09-13T10:47:32;4.93;;;1.40;;
66597;SDS011;57424;53.128;6.406;2022-09-13T10:52:50;4.72;;;1.63;;
66597;SDS011;57424;53.128;6.406;2022-09-13T10:57:55;2.33;;;1.30;;
66597;SDS011;57424;53.128;6.406;2022-09-13T11:03:50;3.40;;;1.30;;
66597;SDS011;57424;53.128;6.406;2022-09-13T11:11:41;2.85;;;1.30;;
66597;SDS011;57424;53.128;6.406;2022-09-13T11:14:44;4.78;;;1.38;;
66597;SDS011;57424;53.128;6.406;2022-09-13T11:20:03;3.72;;;1.45;;
66597;SDS011;57424;53.128;6.406;2022-09-13T11:23:10;2.60;;;1.10;;
66597;SDS011;57424;53.128;6.406;2022-09-13T11:39:40;2.42;;;1.10;;
66597;SDS011;57424;53.128;6.406;2022-09-13T11:56:23;4.03;;;1.20;;
66597;SDS011;57424;53.128;6.406;2022-09-13T12:01:44;3.08;;;1.10;;
66597;SDS011;57424;53.128;6.406;2022-09-13T12:07:03;5.45;;;1.90;;
66597;SDS011;57424;53.128;6.406;2022-09-13T12:09:40;2.78;;;1.08;;
66597;SDS011;57424;53.128;6.406;2022-09-13T12:12:15;3.60;;;1.27;;
66597;SDS011;57424;53.128;6.406;2022-09-13T12:14:49;5.10;;;1.00;;
66597;SDS011;57424;53.128;6.406;2022-09-13T12:17:26;2.72;;;1.13;;
66597;SDS011;57424;53.128;6.406;2022-09-13T12:19:59;6.03;;;1.35;;
66597;SDS011;57424;53.128;6.406;2022-09-13T12:22:29;2.63;;;1.30;;
66597;SDS011;57424;53.128;6.406;2022-09-13T12:25:01;7.30;;;1.40;;
66597;SDS011;57424;53.128;6.406;2022-09-13T12:27:36;5.32;;;1.20;;
66597;SDS011;57424;53.128;6.406;2022-09-13T12:32:40;6.50;;;1.20;;
66597;SDS011;57424;53.128;6.406;2022-09-13T12:40:42;2.90;;;1.02;;
66597;SDS011;57424;53.128;6.406;2022-09-13T12:43:35;12.68;;;1.42;;
66597;SDS011;57424;53.128;6.406;2022-09-13T12:52:05;4.53;;;1.10;;
66597;SDS011;57424;53.128;6.406;2022-09-13T13:02:37;4.03;;;1.00;;
66597;SDS011;57424;53.128;6.406;2022-09-13T13:05:19;3.80;;;0.90;;
66597;SDS011;57424;53.128;6.406;2022-09-13T13:07:52;2.58;;;0.93;;
66597;SDS011;57424;53.128;6.406;2022-09-13T13:10:25;6.05;;;1.08;;
66597;SDS011;57424;53.128;6.406;2022-09-13T13:12:55;5.40;;;1.40;;
66597;SDS011;57424;53.128;6.406;2022-09-13T13:18:22;6.05;;;1.10;;
66597;SDS011;57424;53.128;6.406;2022-09-13T13:23:28;4.03;;;1.05;;
66597;SDS011;57424;53.128;6.406;2022-09-13T13:31:38;2.83;;;1.52;;
66597;SDS011;57424;53.128;6.406;2022-09-13T13:39:12;4.50;;;1.33;;
66597;SDS011;57424;53.128;6.406;2022-09-13T13:46:50;6.63;;;1.13;;
66597;SDS011;57424;53.128;6.406;2022-09-13T13:59:50;3.47;;;0.95;;
66597;SDS011;57424;53.128;6.406;2022-09-13T14:02:22;4.75;;;1.30;;
66597;SDS011;57424;53.128;6.406;2022-09-13T14:10:57;6.78;;;1.65;;
66597;SDS011;57424;53.128;6.406;2022-09-13T14:19:07;6.30;;;1.00;;
66597;SDS011;57424;53.128;6.406;2022-09-13T14:21:44;5.13;;;1.33;;
66597;SDS011;57424;53.128;6.406;2022-09-13T14:24:15;3.78;;;0.90;;
66597;SDS011;57424;53.128;6.406;2022-09-13T14:26:48;6.95;;;0.98;;
66597;SDS011;57424;53.128;6.406;2022-09-13T14:29:18;4.80;;;0.77;;
66597;SDS011;57424;53.128;6.406;2022-09-13T14:31:46;3.13;;;0.85;;
66597;SDS011;57424;53.128;6.406;2022-09-13T14:34:20;3.67;;;0.95;;
66597;SDS011;57424;53.128;6.406;2022-09-13T14:36:55;3.72;;;0.93;;
66597;SDS011;57424;53.128;6.406;2022-09-13T14:39:22;4.15;;;0.90;;
66597;SDS011;57424;53.128;6.406;2022-09-13T14:41:56;3.55;;;0.85;;
66597;SDS011;57424;53.128;6.406;2022-09-13T14:44:27;4.72;;;1.23;;
66597;SDS011;57424;53.128;6.406;2022-09-13T14:47:01;7.43;;;1.27;;
66597;SDS011;57424;53.128;6.406;2022-09-13T14:49:38;3.58;;;0.90;;
66597;SDS011;57424;53.128;6.406;2022-09-13T14:52:09;2.47;;;0.65;;
66597;SDS011;57424;53.128;6.406;2022-09-13T14:54:46;4.68;;;1.02;;
66597;SDS011;57424;53.128;6.406;2022-09-13T14:59:48;3.47;;;0.80;;
66597;SDS011;57424;53.128;6.406;2022-09-13T15:02:20;5.47;;;0.80;;
66597;SDS011;57424;53.128;6.406;2022-09-13T15:04:49;3.58;;;0.90;;
66597;SDS011;57424;53.128;6.406;2022-09-13T15:07:20;7.07;;;1.60;;
66597;SDS011;57424;53.128;6.406;2022-09-13T15:10:42;3.33;;;0.70;;
66597;SDS011;57424;53.128;6.406;2022-09-13T15:15:22;3.28;;;1.17;;
66597;SDS011;57424;53.128;6.406;2022-09-13T15:20:18;8.68;;;2.03;;
66597;SDS011;57424;53.128;6.406;2022-09-13T15:22:44;10.60;;;2.08;;
66597;SDS011;57424;53.128;6.406;2022-09-13T15:25:21;7.63;;;2.70;;
66597;SDS011;57424;53.128;6.406;2022-09-13T15:27:52;11.35;;;2.47;;
66597;SDS011;57424;53.128;6.406;2022-09-13T15:30:24;8.20;;;1.88;;
66597;SDS011;57424;53.128;6.406;2022-09-13T15:35:38;5.03;;;1.50;;
66597;SDS011;57424;53.128;6.406;2022-09-13T15:38:27;11.98;;;2.72;;
66597;SDS011;57424;53.128;6.406;2022-09-13T15:41:17;4.22;;;1.60;;
66597;SDS011;57424;53.128;6.406;2022-09-13T15:43:42;6.40;;;1.58;;
66597;SDS011;57424;53.128;6.406;2022-09-13T15:46:10;5.32;;;1.55;;
66597;SDS011;57424;53.128;6.406;2022-09-13T15:48:39;6.53;;;1.83;;
66597;SDS011;57424;53.128;6.406;2022-09-13T15:51:11;3.95;;;1.70;;
66597;SDS011;57424;53.128;6.406;2022-09-13T15:53:39;4.55;;;1.60;;
66597;SDS011;57424;53.128;6.406;2022-09-13T15:56:07;4.47;;;1.60;;
66597;SDS011;57424;53.128;6.406;2022-09-13T15:58:36;8.02;;;1.88;;
66597;SDS011;57424;53.128;6.406;2022-09-13T16:01:02;3.55;;;1.10;;
66597;SDS011;57424;53.128;6.406;2022-09-13T16:03:29;4.00;;;1.40;;
66597;SDS011;57424;53.128;6.406;2022-09-13T16:05:55;5.38;;;1.20;;
66597;SDS011;57424;53.128;6.406;2022-09-13T16:08:21;4.68;;;1.75;;
66597;SDS011;57424;53.128;6.406;2022-09-13T16:10:47;6.40;;;1.45;;
66597;SDS011;57424;53.128;6.406;2022-09-13T16:13:13;6.70;;;1.35;;
66597;SDS011;57424;53.128;6.406;2022-09-13T16:15:39;3.45;;;1.40;;
66597;SDS011;57424;53.128;6.406;2022-09-13T16:18:04;2.72;;;1.13;;
66597;SDS011;57424;53.128;6.406;2022-09-13T16:20:30;5.35;;;1.50;;
66597;SDS011;57424;53.128;6.406;2022-09-13T16:22:56;3.53;;;0.93;;
66597;SDS011;57424;53.128;6.406;2022-09-13T16:25:21;5.15;;;1.80;;
66597;SDS011;57424;53.128;6.406;2022-09-13T16:27:47;2.15;;;0.88;;
66597;SDS011;57424;53.128;6.406;2022-09-13T16:30:14;4.28;;;1.45;;
66597;SDS011;57424;53.128;6.406;2022-09-13T16:32:42;3.42;;;0.93;;
66597;SDS011;57424;53.128;6.406;2022-09-13T16:35:08;2.50;;;0.90;;
66597;SDS011;57424;53.128;6.406;2022-09-13T16:37:35;3.88;;;1.05;;
66597;SDS011;57424;53.128;6.406;2022-09-13T16:40:02;2.97;;;1.15;;
66597;SDS011;57424;53.128;6.406;2022-09-13T16:42:28;6.43;;;1.20;;
66597;SDS011;57424;53.128;6.406;2022-09-13T16:44:54;5.13;;;1.00;;
66597;SDS011;57424;53.128;6.406;2022-09-13T16:47:19;3.28;;;1.35;;
66597;SDS011;57424;53.128;6.406;2022-09-13T16:49:45;3.13;;;0.98;;
66597;SDS011;57424;53.128;6.406;2022-09-13T16:52:10;6.53;;;1.40;;
66597;SDS011;57424;53.128;6.406;2022-09-13T16:54:36;5.72;;;1.58;;
66597;SDS011;57424;53.128;6.406;2022-09-13T16:57:03;7.07;;;1.52;;
66597;SDS011;57424;53.128;6.406;2022-09-13T16:59:30;2.28;;;0.80;;
66597;SDS011;57424;53.128;6.406;2022-09-13T17:01:56;3.60;;;1.50;;
66597;SDS011;57424;53.128;6.406;2022-09-13T17:04:22;3.40;;;1.13;;
66597;SDS011;57424;53.128;6.406;2022-09-13T17:06:48;4.60;;;1.23;;
66597;SDS011;57424;53.128;6.406;2022-09-13T17:09:14;4.38;;;1.17;;
66597;SDS011;57424;53.128;6.406;2022-09-13T17:11:41;7.90;;;1.20;;
66597;SDS011;57424;53.128;6.406;2022-09-13T17:14:08;5.15;;;1.15;;
66597;SDS011;57424;53.128;6.406;2022-09-13T17:16:40;2.88;;;1.13;;
66597;SDS011;57424;53.128;6.406;2022-09-13T17:19:11;4.20;;;1.15;;
66597;SDS011;57424;53.128;6.406;2022-09-13T17:21:39;2.75;;;1.00;;
66597;SDS011;57424;53.128;6.406;2022-09-13T17:24:05;4.15;;;1.05;;
66597;SDS011;57424;53.128;6.406;2022-09-13T17:26:31;2.42;;;0.90;;
66597;SDS011;57424;53.128;6.406;2022-09-13T17:28:56;5.25;;;1.25;;
66597;SDS011;57424;53.128;6.406;2022-09-13T17:31:22;2.85;;;0.98;;
66597;SDS011;57424;53.128;6.406;2022-09-13T17:33:48;2.50;;;1.00;;
66597;SDS011;57424;53.128;6.406;2022-09-13T17:36:14;4.53;;;0.95;;
66597;SDS011;57424;53.128;6.406;2022-09-13T17:38:39;3.78;;;1.33;;
66597;SDS011;57424;53.128;6.406;2022-09-13T17:41:07;3.78;;;0.95;;
66597;SDS011;57424;53.128;6.406;2022-09-13T17:43:33;4.30;;;1.10;;
66597;SDS011;57424;53.128;6.406;2022-09-13T17:46:07;4.00;;;1.20;;
66597;SDS011;57424;53.128;6.406;2022-09-13T17:48:35;4.38;;;0.90;;
66597;SDS011;57424;53.128;6.406;2022-09-13T17:51:05;2.25;;;0.80;;
66597;SDS011;57424;53.128;6.406;2022-09-13T17:53:38;3.00;;;1.10;;
66597;SDS011;57424;53.128;6.406;2022-09-13T17:56:16;2.55;;;0.88;;
66597;SDS011;57424;53.128;6.406;2022-09-13T17:58:43;3.85;;;0.90;;
66597;SDS011;57424;53.128;6.406;2022-09-13T18:01:08;3.47;;;0.98;;
66597;SDS011;57424;53.128;6.406;2022-09-13T18:03:34;2.75;;;1.02;;
66597;SDS011;57424;53.128;6.406;2022-09-13T18:06:02;4.05;;;1.10;;
66597;SDS011;57424;53.128;6.406;2022-09-13T18:08:29;2.00;;;0.90;;
66597;SDS011;57424;53.128;6.406;2022-09-13T18:11:03;1.65;;;0.80;;
66597;SDS011;57424;53.128;6.406;2022-09-13T18:13:33;3.67;;;0.95;;
66597;SDS011;57424;53.128;6.406;2022-09-13T18:16:01;3.78;;;1.30;;
66597;SDS011;57424;53.128;6.406;2022-09-13T18:18:28;3.50;;;0.90;;
66597;SDS011;57424;53.128;6.406;2022-09-13T18:20:53;3.33;;;0.95;;
66597;SDS011;57424;53.128;6.406;2022-09-13T18:23:20;3.25;;;1.42;;
66597;SDS011;57424;53.128;6.406;2022-09-13T18:25:59;2.97;;;1.05;;
66597;SDS011;57424;53.128;6.406;2022-09-13T18:28:28;1.05;;;0.88;;
66597;SDS011;57424;53.128;6.406;2022-09-13T18:30:57;2.40;;;1.00;;